Time;durP1;ratioP1;P1;durP2;ratioP2;P2;SDS_P1;SDS_P2;PMS_P1;PMS_P2;Temp;Humidity;BMP_temperature;BMP_pressure;BME280_temperature;BME280_humidity;BME280_pressure;Samples;Min_cycle;Max_cycle;Signal;HPM_P1;HPM_P2
2023/08/02 00:00:10;;;;;;;;;;;;;;;16.88;69.49;97122.16;5052936;28;19936;-66
2023/08/02 00:02:42;;;;;;;;;;;;;;;16.77;70.32;97122.00;5042635;28;19983;-65
2023/08/02 00:05:10;;;;;;;;;;;;;;;16.82;70.07;97118.16;5047726;28;19925;-65
2023/08/02 00:07:38;;;;;;;;;;;;;;;16.82;70.32;97127.16;5050440;28;19925;-64
2023/08/02 00:10:08;;;;;;;;;;;;;;;16.85;70.31;97120.16;5059777;28;19925;-65
2023/08/02 00:12:37;;;;;;;;;;;;;;;16.80;71.03;97117.75;5058003;28;19960;-65
2023/08/02 00:15:06;;;;;;;;;;;;;;;16.63;71.41;97121.78;5048835;28;19932;-64
2023/08/02 00:17:34;;;;;;;;;;;;;;;16.65;71.57;97120.25;5034130;28;19928;-68
2023/08/02 00:20:03;;;;;;;;;;;;;;;16.67;71.39;97128.91;5049363;28;20401;-65
2023/08/02 00:22:31;;;;;;;;;;;;;;;16.59;71.71;97127.22;5051454;28;19925;-65
2023/08/02 00:24:59;;;;;;;;;;;;;;;16.59;71.51;97120.94;5048803;28;20485;-67
2023/08/02 00:27:27;;;;;;;;;;;;;;;16.49;71.96;97122.38;5042693;28;19924;-65
2023/08/02 00:29:57;;;;;;;;;;;;;;;16.53;71.91;97117.72;5055006;28;19974;-65
2023/08/02 00:32:25;;;;;;;;;;;;;;;16.49;71.95;97120.41;5047872;28;19952;-66
2023/08/02 00:34:54;;;;;;;;;;;;;;;16.48;72.03;97120.78;5047424;28;19997;-67
2023/08/02 00:37:22;;;;;;;;;;;;;;;16.50;72.08;97121.19;5034572;28;20097;-65
2023/08/02 00:39:51;;;;;;;;;;;;;;;16.50;72.14;97123.94;5055492;28;19928;-66
2023/08/02 00:42:20;;;;;;;;;;;;;;;16.45;72.17;97116.81;5052302;28;19925;-66
2023/08/02 00:44:48;;;;;;;;;;;;;;;16.40;72.25;97108.13;5053271;28;19925;-65
2023/08/02 00:47:17;;;;;;;;;;;;;;;16.48;72.07;97109.81;5046730;28;19935;-65
2023/08/02 00:49:46;;;;;;;;;;;;;;;16.52;71.73;97115.38;5052152;28;20552;-64
2023/08/02 00:52:13;;;;;;;;;;;;;;;16.52;71.92;97121.63;5050521;28;19931;-66
2023/08/02 00:54:42;;;;;;;;;;;;;;;16.46;72.03;97126.66;5048705;28;19925;-66
2023/08/02 00:57:10;;;;;;;;;;;;;;;16.40;72.28;97119.88;5057522;28;20370;-70
2023/08/02 00:59:38;;;;;;;;;;;;;;;16.40;72.20;97114.38;5045022;28;19924;-65
2023/08/02 01:02:07;;;;;;;;;;;;;;;16.41;72.12;97121.47;5038835;28;19925;-65
2023/08/02 01:04:36;;;;;;;;;;;;;;;16.36;72.41;97119.06;5046568;28;20667;-65
2023/08/02 01:07:06;;;;;;;;;;;;;;;16.39;72.37;97109.28;5050618;28;19998;-66
2023/08/02 01:09:36;;;;;;;;;;;;;;;16.42;72.36;97114.81;5049414;28;19970;-67
2023/08/02 01:12:05;;;;;;;;;;;;;;;16.35;72.49;97111.16;5044594;28;19947;-66
2023/08/02 01:14:34;;;;;;;;;;;;;;;16.25;72.78;97101.66;5043384;28;19925;-66
2023/08/02 01:17:10;;;;;;;;;;;;;;;16.28;72.81;97102.84;5034235;28;19925;-67
2023/08/02 01:19:39;;;;;;;;;;;;;;;16.24;72.98;97103.59;5045860;28;19925;-67
2023/08/02 01:22:08;;;;;;;;;;;;;;;16.24;73.12;97103.59;5044170;28;19933;-65
2023/08/02 01:24:36;;;;;;;;;;;;;;;16.21;73.22;97096.09;5036070;28;19936;-65
2023/08/02 01:27:05;;;;;;;;;;;;;;;16.21;73.10;97095.31;5048077;28;19948;-65
2023/08/02 01:29:33;;;;;;;;;;;;;;;16.21;73.01;97090.63;5050523;28;19924;-66
2023/08/02 01:32:01;;;;;;;;;;;;;;;16.15;73.26;97094.84;5040518;28;19955;-65
2023/08/02 01:34:29;;;;;;;;;;;;;;;16.17;73.27;97092.50;5040599;28;20033;-66
2023/08/02 01:36:57;;;;;;;;;;;;;;;16.14;72.94;97087.78;5050168;28;19929;-65
2023/08/02 01:39:26;;;;;;;;;;;;;;;16.14;73.15;97085.03;5040826;28;19925;-67
2023/08/02 01:41:54;;;;;;;;;;;;;;;16.02;73.26;97085.22;5053378;28;19928;-66
2023/08/02 01:44:23;;;;;;;;;;;;;;;16.05;73.08;97076.28;5042624;28;19951;-65
2023/08/02 01:46:51;;;;;;;;;;;;;;;16.03;73.36;97086.78;5043855;28;19975;-65
2023/08/02 01:49:18;;;;;;;;;;;;;;;16.05;73.26;97087.25;5040802;28;19929;-66
2023/08/02 01:51:46;;;;;;;;;;;;;;;16.12;72.87;97089.28;5038648;28;19933;-64
2023/08/02 01:54:14;;;;;;;;;;;;;;;16.13;72.61;97083.44;5041812;28;19932;-65
2023/08/02 01:56:43;;;;;;;;;;;;;;;16.00;72.96;97084.81;5045003;28;19932;-65
2023/08/02 01:59:12;;;;;;;;;;;;;;;16.06;72.54;97077.06;5043431;28;19933;-65
2023/08/02 02:01:40;;;;;;;;;;;;;;;16.08;72.63;97080.22;5056422;28;20334;-66
2023/08/02 02:04:08;;;;;;;;;;;;;;;16.10;72.29;97078.72;5038853;28;19932;-65
2023/08/02 02:06:36;;;;;;;;;;;;;;;16.06;72.46;97074.31;5047091;28;19982;-65
2023/08/02 02:09:04;;;;;;;;;;;;;;;16.09;72.45;97076.34;5037397;28;20469;-65
2023/08/02 02:11:32;;;;;;;;;;;;;;;16.06;72.39;97068.84;5061287;28;19925;-65
2023/08/02 02:14:02;;;;;;;;;;;;;;;16.09;72.18;97065.38;5046804;28;19955;-64
2023/08/02 02:16:30;;;;;;;;;;;;;;;16.11;71.83;97052.88;5053342;28;19925;-65
2023/08/02 02:18:58;;;;;;;;;;;;;;;16.09;71.80;97055.22;5056014;28;19954;-64
2023/08/02 02:21:27;;;;;;;;;;;;;;;16.05;71.56;97040.66;5047180;28;20402;-66
2023/08/02 02:23:56;;;;;;;;;;;;;;;16.01;71.07;97030.81;5050273;28;19929;-65
2023/08/02 02:26:25;;;;;;;;;;;;;;;15.99;71.69;97033.91;5035313;28;19956;-66
2023/08/02 02:28:53;;;;;;;;;;;;;;;16.01;71.05;97042.53;5062389;28;19925;-65
2023/08/02 02:31:24;;;;;;;;;;;;;;;15.94;71.49;97036.97;5045790;28;19968;-66
2023/08/02 02:33:52;;;;;;;;;;;;;;;15.94;71.33;97036.97;5043686;28;19931;-66
2023/08/02 02:36:20;;;;;;;;;;;;;;;15.89;71.43;97031.78;5045631;28;20274;-65
2023/08/02 02:38:51;;;;;;;;;;;;;;;15.93;71.46;97029.91;5047651;28;20015;-64
2023/08/02 02:41:19;;;;;;;;;;;;;;;15.93;71.18;97040.88;5054060;28;19929;-65
2023/08/02 02:43:46;;;;;;;;;;;;;;;15.97;71.12;97031.53;5044948;28;20001;-65
2023/08/02 02:46:14;;;;;;;;;;;;;;;15.95;70.84;97024.84;5049788;28;19960;-66
2023/08/02 02:48:45;;;;;;;;;;;;;;;15.97;70.77;97028.00;5047678;28;20016;-65
2023/08/02 02:51:13;;;;;;;;;;;;;;;15.97;70.63;97026.03;5044472;28;19925;-65
2023/08/02 02:53:41;;;;;;;;;;;;;;;15.96;70.53;97026.41;5056077;28;19924;-65
2023/08/02 02:56:09;;;;;;;;;;;;;;;15.84;70.51;97032.91;5056402;28;19940;-67
2023/08/02 02:58:37;;;;;;;;;;;;;;;15.82;70.94;97034.41;5049813;28;19975;-65
2023/08/02 03:01:05;;;;;;;;;;;;;;;15.79;70.84;97029.69;5050445;28;19928;-65
2023/08/02 03:03:33;;;;;;;;;;;;;;;15.70;71.17;97027.97;5064247;28;19955;-68
2023/08/02 03:06:02;;;;;;;;;;;;;;;15.75;71.44;97015.91;5051646;28;19944;-64
2023/08/02 03:08:30;;;;;;;;;;;;;;;15.83;70.77;97008.63;5053301;28;20389;-66
2023/08/02 03:10:58;;;;;;;;;;;;;;;15.86;70.72;97008.66;5052311;28;20667;-65
2023/08/02 03:13:26;;;;;;;;;;;;;;;15.86;70.49;97005.91;5039899;28;19932;-67
2023/08/02 03:15:53;;;;;;;;;;;;;;;15.80;70.53;97010.13;5051816;28;20011;-66
2023/08/02 03:18:21;;;;;;;;;;;;;;;15.73;70.56;97006.50;5048660;28;19932;-66
2023/08/02 03:20:49;;;;;;;;;;;;;;;15.69;70.67;96993.53;5056640;28;19932;-71
2023/08/02 03:23:18;;;;;;;;;;;;;;;15.71;70.41;96999.44;5049200;28;20275;-65
2023/08/02 03:25:46;;;;;;;;;;;;;;;15.68;70.93;96991.94;5052725;28;20382;-65
2023/08/02 03:28:14;;;;;;;;;;;;;;;15.65;70.85;96998.16;5049781;28;19943;-66
2023/08/02 03:30:44;;;;;;;;;;;;;;;15.72;70.75;96992.03;5052278;28;19932;-65
2023/08/02 03:33:12;;;;;;;;;;;;;;;15.76;70.47;96995.59;5046850;28;20043;-65
2023/08/02 03:35:40;;;;;;;;;;;;;;;15.68;70.83;96994.69;5039379;28;19932;-65
2023/08/02 03:38:08;;;;;;;;;;;;;;;15.70;70.72;96995.09;5046794;28;20361;-66
2023/08/02 03:40:37;;;;;;;;;;;;;;;15.80;70.45;96990.97;5046336;28;19924;-65
2023/08/02 03:43:04;;;;;;;;;;;;;;;15.74;70.41;96991.66;5041022;28;19933;-65
2023/08/02 03:45:32;;;;;;;;;;;;;;;15.70;70.65;96978.69;5054963;28;19932;-66
2023/08/02 03:48:07;;;;;;;;;;;;;;;15.69;70.45;96977.09;5047378;28;19928;-65
2023/08/02 03:50:35;;;;;;;;;;;;;;;15.70;70.33;96970.47;5058040;28;20317;-66
2023/08/02 03:53:03;;;;;;;;;;;;;;;15.77;70.37;96964.31;5042932;28;19929;-66
2023/08/02 03:55:30;;;;;;;;;;;;;;;15.69;70.19;96955.19;5043920;28;20286;-65
2023/08/02 03:58:00;;;;;;;;;;;;;;;15.66;70.14;96957.91;5047517;28;19925;-64
2023/08/02 04:00:28;;;;;;;;;;;;;;;15.69;69.87;96960.66;5041732;28;19936;-64
2023/08/02 04:02:56;;;;;;;;;;;;;;;15.70;69.82;96954.03;5050357;28;19931;-67
2023/08/02 04:05:24;;;;;;;;;;;;;;;15.65;69.99;96962.56;5041833;28;19937;-68
2023/08/02 04:07:51;;;;;;;;;;;;;;;15.66;70.20;96952.41;5054808;28;19925;-65
2023/08/02 04:10:19;;;;;;;;;;;;;;;15.56;70.17;96951.06;5052844;28;19929;-65
2023/08/02 04:12:47;;;;;;;;;;;;;;;15.54;69.97;96947.88;5045141;28;20362;-65
2023/08/02 04:15:19;;;;;;;;;;;;;;;15.58;70.08;96948.75;5055063;28;19929;-65
2023/08/02 04:17:49;;;;;;;;;;;;;;;15.62;69.84;96952.31;5052637;28;19925;-64
2023/08/02 04:20:17;;;;;;;;;;;;;;;15.67;70.00;96946.56;5053105;28;19924;-65
2023/08/02 04:22:44;;;;;;;;;;;;;;;15.67;69.52;96949.31;5051972;28;19925;-65
2023/08/02 04:25:13;;;;;;;;;;;;;;;15.67;69.43;96943.84;5051288;28;19932;-64
2023/08/02 04:27:41;;;;;;;;;;;;;;;15.73;69.30;96949.78;5042234;28;19925;-65
2023/08/02 04:30:09;;;;;;;;;;;;;;;15.73;69.41;96938.03;5048303;28;19933;-65
2023/08/02 04:32:38;;;;;;;;;;;;;;;15.69;69.74;96936.03;5034821;28;20469;-65
2023/08/02 04:35:07;;;;;;;;;;;;;;;15.77;69.48;96930.69;5051568;28;19925;-66
2023/08/02 04:37:35;;;;;;;;;;;;;;;15.78;69.31;96915.81;5053811;28;19925;-67
2023/08/02 04:40:03;;;;;;;;;;;;;;;15.82;69.52;96905.69;5052583;28;19929;-67
2023/08/02 04:42:31;;;;;;;;;;;;;;;15.82;69.68;96911.16;5049754;28;20495;-65
2023/08/02 04:44:59;;;;;;;;;;;;;;;15.93;69.58;96914.88;5052055;28;20294;-67
2023/08/02 04:47:26;;;;;;;;;;;;;;;15.94;69.85;96911.75;5045196;28;19925;-66
2023/08/02 04:49:57;;;;;;;;;;;;;;;15.91;70.17;96906.22;5044371;28;19982;-67
2023/08/02 04:52:25;;;;;;;;;;;;;;;16.02;70.13;96907.16;5046149;28;19925;-65
2023/08/02 04:54:53;;;;;;;;;;;;;;;16.03;69.30;96905.19;5042490;28;19925;-65
2023/08/02 04:57:21;;;;;;;;;;;;;;;16.03;69.60;96903.25;5046120;28;19932;-65
2023/08/02 04:59:49;;;;;;;;;;;;;;;15.98;69.89;96906.31;5044777;28;20083;-65
2023/08/02 05:02:18;;;;;;;;;;;;;;;15.94;69.95;96908.22;5047316;28;19929;-66
2023/08/02 05:04:45;;;;;;;;;;;;;;;15.96;69.91;96914.09;5048905;28;19925;-66
2023/08/02 05:07:14;;;;;;;;;;;;;;;15.90;70.13;96915.59;5051255;28;19925;-64
2023/08/02 05:09:42;;;;;;;;;;;;;;;15.97;70.13;96899.25;5051208;28;19925;-66
2023/08/02 05:12:10;;;;;;;;;;;;;;;16.01;70.09;96908.31;5041265;28;19925;-64
2023/08/02 05:14:38;;;;;;;;;;;;;;;16.02;70.43;96907.16;5043453;28;19928;-66
2023/08/02 05:17:07;;;;;;;;;;;;;;;16.07;69.81;96893.13;5054916;28;19924;-63
2023/08/02 05:19:35;;;;;;;;;;;;;;;15.97;70.29;96896.50;5037828;28;19933;-64
2023/08/02 05:22:03;;;;;;;;;;;;;;;16.10;70.11;96897.88;5052374;28;19925;-63
2023/08/02 05:24:32;;;;;;;;;;;;;;;16.13;70.31;96885.38;5041943;28;19932;-66
2023/08/02 05:27:00;;;;;;;;;;;;;;;16.10;70.90;96891.59;5048739;28;20293;-65
2023/08/02 05:29:28;;;;;;;;;;;;;;;16.11;70.43;96882.22;5053624;28;19932;-63
2023/08/02 05:31:56;;;;;;;;;;;;;;;16.18;70.44;96871.34;5036462;28;19933;-66
2023/08/02 05:34:23;;;;;;;;;;;;;;;16.20;70.42;96864.34;5040933;28;19931;-62
2023/08/02 05:36:51;;;;;;;;;;;;;;;16.24;70.44;96876.13;5036623;28;19931;-63
2023/08/02 05:39:19;;;;;;;;;;;;;;;16.26;70.14;96889.47;5042899;28;20010;-64
2023/08/02 05:41:48;;;;;;;;;;;;;;;16.19;70.58;96887.44;5041677;28;19939;-64
2023/08/02 05:44:16;;;;;;;;;;;;;;;16.22;70.28;96900.38;5050789;28;19925;-64
2023/08/02 05:46:44;;;;;;;;;;;;;;;16.23;70.66;96895.66;5059268;28;19930;-62
2023/08/02 05:49:12;;;;;;;;;;;;;;;16.28;70.07;96902.78;5043608;28;19939;-64
2023/08/02 05:51:58;;;;;;;;;;;;;;;16.24;70.29;96899.97;5028211;28;19936;-66
2023/08/02 05:54:47;;;;;;;;;;;;;;;16.26;70.36;96889.47;5030445;28;20448;-65
2023/08/02 05:57:36;;;;;;;;;;;;;;;16.34;70.28;96885.63;5036224;28;19936;-66
2023/08/02 06:00:24;;;;;;;;;;;;;;;16.34;70.53;96873.88;5032828;28;19929;-65
2023/08/02 06:03:13;;;;;;;;;;;;;;;16.37;70.25;96865.69;5037401;28;19929;-64
2023/08/02 06:06:01;;;;;;;;;;;;;;;16.45;69.81;96850.09;5042708;28;19931;-65
2023/08/02 06:08:49;;;;;;;;;;;;;;;16.41;70.38;96849.31;5033124;28;19937;-66
2023/08/02 06:11:37;;;;;;;;;;;;;;;16.37;70.39;96843.78;5029802;28;19956;-64
2023/08/02 06:14:27;;;;;;;;;;;;;;;16.42;70.51;96842.66;5040521;28;20027;-64
2023/08/02 06:17:15;;;;;;;;;;;;;;;16.44;70.96;96845.78;5034186;28;19936;-64
2023/08/02 06:20:04;;;;;;;;;;;;;;;16.50;70.45;96850.56;5046206;28;19956;-65
2023/08/02 06:22:52;;;;;;;;;;;;;;;16.52;70.25;96847.47;5041741;28;19924;-65
2023/08/02 06:25:41;;;;;;;;;;;;;;;16.56;70.36;96844.72;5037952;28;19983;-66
2023/08/02 06:28:29;;;;;;;;;;;;;;;16.52;70.45;96846.69;5040490;28;19951;-66
2023/08/02 06:31:19;;;;;;;;;;;;;;;16.57;70.30;96838.09;5049463;28;20489;-67
2023/08/02 06:34:07;;;;;;;;;;;;;;;16.57;70.48;96829.88;5032266;28;19924;-67
2023/08/02 06:36:55;;;;;;;;;;;;;;;16.58;70.39;96837.72;5036302;28;19955;-66
2023/08/02 06:39:43;;;;;;;;;;;;;;;16.54;70.91;96830.63;5037574;28;20850;-67
2023/08/02 06:42:32;;;;;;;;;;;;;;;16.59;70.42;96831.06;5057776;28;19939;-65
2023/08/02 06:45:20;;;;;;;;;;;;;;;16.67;69.72;96827.25;5048973;28;20012;-65
2023/08/02 06:48:09;;;;;;;;;;;;;;;16.61;70.07;96828.72;5048005;28;19928;-65
2023/08/02 06:50:58;;;;;;;;;;;;;;;16.63;69.75;96831.13;5047004;28;19971;-67
2023/08/02 06:53:46;;;;;;;;;;;;;;;16.63;70.26;96825.63;5043404;28;19960;-68
2023/08/02 06:56:34;;;;;;;;;;;;;;;16.65;70.24;96824.06;5044193;28;20426;-67
2023/08/02 06:59:22;;;;;;;;;;;;;;;16.66;70.19;96820.16;5036094;28;19932;-65
2023/08/02 07:02:13;;;;;;;;;;;;;;;16.61;70.33;96815.03;5039517;28;19925;-65
2023/08/02 07:05:03;;;;;;;;;;;;;;;16.64;70.59;96817.03;5033482;28;19929;-65
2023/08/02 07:07:51;;;;;;;;;;;;;;;16.67;70.47;96809.97;5043926;28;19929;-64
2023/08/02 07:10:39;;;;;;;;;;;;;;;16.63;70.74;96809.97;5049373;28;19932;-65
2023/08/02 07:13:27;;;;;;;;;;;;;;;16.70;71.27;96814.72;5043751;28;19925;-65
2023/08/02 07:16:16;;;;;;;;;;;;;;;16.68;71.37;96808.84;5036509;28;19932;-64
2023/08/02 07:19:04;;;;;;;;;;;;;;;16.70;71.84;96803.75;5044360;28;19940;-64
2023/08/02 07:21:54;;;;;;;;;;;;;;;16.77;71.57;96803.84;5036626;28;19937;-64
2023/08/02 07:24:42;;;;;;;;;;;;;;;16.84;71.60;96803.13;5038735;28;20025;-64
2023/08/02 07:27:30;;;;;;;;;;;;;;;16.85;71.52;96799.22;5034954;28;19934;-65
2023/08/02 07:30:18;;;;;;;;;;;;;;;16.91;71.53;96800.44;5040759;28;19924;-64
2023/08/02 07:33:06;;;;;;;;;;;;;;;16.91;71.68;96797.69;5050174;28;19929;-65
2023/08/02 07:35:54;;;;;;;;;;;;;;;16.96;71.09;96789.13;5038260;28;19931;-64
2023/08/02 07:38:44;;;;;;;;;;;;;;;16.98;71.47;96795.00;5044302;28;19933;-64
2023/08/02 07:41:32;;;;;;;;;;;;;;;16.99;71.37;96800.13;5037302;28;19924;-64
2023/08/02 07:44:21;;;;;;;;;;;;;;;17.05;71.79;96789.59;5053237;28;19943;-64
2023/08/02 07:47:09;;;;;;;;;;;;;;;17.06;71.25;96790.38;5034218;28;19960;-65
2023/08/02 07:49:57;;;;;;;;;;;;;;;17.03;71.39;96783.66;5043367;28;19925;-64
2023/08/02 07:52:45;;;;;;;;;;;;;;;17.06;71.43;96782.91;5036274;28;19932;-67
2023/08/02 07:55:35;;;;;;;;;;;;;;;17.00;71.97;96774.25;5041835;28;20012;-65
2023/08/02 07:58:23;;;;;;;;;;;;;;;17.09;72.73;96775.88;5036094;28;19929;-67
2023/08/02 08:01:11;;;;;;;;;;;;;;;17.07;72.81;96773.50;5029839;28;20549;-64
2023/08/02 08:03:59;;;;;;;;;;;;;;;17.10;72.62;96774.69;5037455;28;19947;-66
2023/08/02 08:06:48;;;;;;;;;;;;;;;17.11;73.22;96763.34;5042297;28;19925;-66
2023/08/02 08:09:36;;;;;;;;;;;;;;;17.16;72.84;96767.69;5047591;28;20535;-63
2023/08/02 08:12:28;;;;;;;;;;;;;;;17.20;72.90;96769.28;5055556;28;20023;-65
2023/08/02 08:15:17;;;;;;;;;;;;;;;17.37;72.26;96769.78;5034760;28;19960;-64
2023/08/02 08:18:05;;;;;;;;;;;;;;;17.36;72.10;96770.94;5048216;28;19929;-65
2023/08/02 08:20:54;;;;;;;;;;;;;;;17.30;72.81;96770.53;5039682;28;19924;-64
2023/08/02 08:23:42;;;;;;;;;;;;;;;17.23;73.08;96763.03;5037403;28;20372;-65
2023/08/02 08:26:30;;;;;;;;;;;;;;;17.20;73.48;96766.53;5051794;28;19937;-64
2023/08/02 08:29:20;;;;;;;;;;;;;;;17.17;73.16;96764.56;5048175;28;19985;-63
2023/08/02 08:32:08;;;;;;;;;;;;;;;17.17;74.14;96755.56;5036951;28;19925;-65
2023/08/02 08:34:56;;;;;;;;;;;;;;;17.11;75.10;96755.13;5046365;28;20286;-66
2023/08/02 08:37:48;;;;;;;;;;;;;;;17.13;75.65;96741.78;5041032;28;19932;-65
2023/08/02 08:40:37;;;;;;;;;;;;;;;17.13;74.95;96728.06;5049075;28;19933;-64
2023/08/02 08:43:25;;;;;;;;;;;;;;;17.23;74.72;96724.59;5037461;28;20386;-64
2023/08/02 08:46:15;;;;;;;;;;;;;;;17.33;74.48;96722.31;5037790;28;19925;-65
2023/08/02 08:49:03;;;;;;;;;;;;;;;17.32;74.54;96713.28;5041215;28;19929;-64
2023/08/02 08:51:51;;;;;;;;;;;;;;;17.33;74.28;96708.59;5038436;28;20512;-65
2023/08/02 08:54:40;;;;;;;;;;;;;;;17.40;74.76;96703.13;5049776;28;20452;-65
2023/08/02 08:57:28;;;;;;;;;;;;;;;17.36;75.59;96707.81;5037075;28;19932;-64
2023/08/02 09:00:16;;;;;;;;;;;;;;;17.42;74.41;96712.56;5032613;28;19951;-65
2023/08/02 09:03:06;;;;;;;;;;;;;;;17.49;74.42;96711.81;5032165;28;19924;-65
2023/08/02 09:05:56;;;;;;;;;;;;;;;17.51;74.12;96703.97;5044269;28;20358;-65
2023/08/02 09:08:47;;;;;;;;;;;;;;;17.57;74.51;96702.41;5040916;28;20641;-64
2023/08/02 09:11:38;;;;;;;;;;;;;;;17.44;75.14;96690.19;5034483;28;19931;-63
2023/08/02 09:14:27;;;;;;;;;;;;;;;17.43;75.73;96694.13;5039740;28;19967;-65
2023/08/02 09:17:15;;;;;;;;;;;;;;;17.44;75.01;96690.19;5046319;28;20371;-65
2023/08/02 09:20:11;;;;;;;;;;;;;;;17.50;75.41;96694.94;5043771;28;20388;-64
2023/08/02 09:23:00;;;;;;;;;;;;;;;17.58;75.44;96698.50;5038777;28;19932;-64
2023/08/02 09:25:48;;;;;;;;;;;;;;;17.65;75.32;96698.53;5033813;28;20413;-65
2023/08/02 09:28:37;;;;;;;;;;;;;;;17.62;76.19;96704.78;5050371;28;20390;-64
2023/08/02 09:31:25;;;;;;;;;;;;;;;17.78;74.60;96694.28;5033431;28;19929;-65
2023/08/02 09:34:14;;;;;;;;;;;;;;;17.73;75.71;96693.88;5038300;28;20512;-65
2023/08/02 09:37:03;;;;;;;;;;;;;;;17.77;76.37;96698.19;5043097;28;19939;-65
2023/08/02 09:39:52;;;;;;;;;;;;;;;17.73;76.56;96694.66;5042122;28;19925;-63
2023/08/02 09:42:40;;;;;;;;;;;;;;;17.78;76.92;96693.50;5031746;28;19925;-65
2023/08/02 09:45:31;;;;;;;;;;;;;;;17.80;75.68;96689.19;5043757;28;19925;-64
2023/08/02 09:48:19;;;;;;;;;;;;;;;17.85;76.49;96676.25;5037663;28;19925;-63
2023/08/02 09:51:11;;;;;;;;;;;;;;;17.83;75.46;96676.63;5034891;28;19996;-64
2023/08/02 09:54:00;;;;;;;;;;;;;;;17.92;75.09;96662.53;5036999;28;19925;-65
2023/08/02 09:56:49;;;;;;;;;;;;;;;17.91;75.86;96667.25;5039193;28;19957;-64
2023/08/02 09:59:37;;;;;;;;;;;;;;;17.86;75.09;96658.59;5033913;28;19932;-64
2023/08/02 10:02:27;;;;;;;;;;;;;;;17.87;75.25;96660.16;5033541;28;19929;-65
2023/08/02 10:05:15;;;;;;;;;;;;;;;17.80;77.13;96647.97;5042810;28;19998;-64
2023/08/02 10:08:04;;;;;;;;;;;;;;;17.78;76.38;96647.56;5048785;28;19933;-67
2023/08/02 10:10:56;;;;;;;;;;;;;;;17.80;77.48;96639.75;5051669;28;20002;-64
2023/08/02 10:13:45;;;;;;;;;;;;;;;17.84;76.19;96637.00;5041015;28;19925;-65
2023/08/02 10:16:33;;;;;;;;;;;;;;;17.89;75.91;96619.34;5046417;28;19928;-64
2023/08/02 10:19:21;;;;;;;;;;;;;;;17.92;76.41;96618.56;5036122;28;19937;-64
2023/08/02 10:22:09;;;;;;;;;;;;;;;17.91;77.62;96611.50;5047066;28;19925;-64
2023/08/02 10:24:57;;;;;;;;;;;;;;;17.85;78.53;96599.34;5042397;28;19935;-63
2023/08/02 10:27:47;;;;;;;;;;;;;;;17.88;77.53;96593.03;5047709;28;19925;-64
2023/08/02 10:30:38;;;;;;;;;;;;;;;17.82;77.03;96591.88;5033826;28;19932;-65
2023/08/02 10:33:26;;;;;;;;;;;;;;;17.91;77.64;96593.06;5050377;28;20016;-63
2023/08/02 10:36:14;;;;;;;;;;;;;;;17.90;78.69;96594.25;5040560;28;19929;-65
2023/08/02 10:39:03;;;;;;;;;;;;;;;17.88;79.27;96584.81;5049240;28;19929;-67
2023/08/02 10:41:56;;;;;;;;;;;;;;;17.89;79.06;96594.59;5037784;28;19929;-64
2023/08/02 10:45:01;;;;;;;;;;;;;;;17.88;80.47;96595.78;5046003;28;19925;-65
2023/08/02 10:47:50;;;;;;;;;;;;;;;17.80;81.06;96581.28;5032502;28;19933;-65
2023/08/02 10:50:43;;;;;;;;;;;;;;;17.84;80.69;96576.53;5043650;28;19933;-64
2023/08/02 10:53:32;;;;;;;;;;;;;;;17.79;81.19;96569.50;5037970;28;20452;-64
2023/08/02 10:56:20;;;;;;;;;;;;;;;17.76;81.34;96562.03;5039597;28;20580;-64
2023/08/02 10:59:08;;;;;;;;;;;;;;;17.78;81.56;96553.38;5046514;28;20317;-64
2023/08/02 11:01:57;;;;;;;;;;;;;;;17.85;80.79;96547.91;5041609;28;19936;-63
2023/08/02 11:04:47;;;;;;;;;;;;;;;17.79;81.75;96538.50;5039689;28;19936;-65
2023/08/02 11:07:35;;;;;;;;;;;;;;;17.71;82.85;96532.16;5037175;28;19990;-64
2023/08/02 11:10:24;;;;;;;;;;;;;;;17.70;82.71;96524.34;5035562;28;20122;-65
2023/08/02 11:13:12;;;;;;;;;;;;;;;17.68;83.46;96516.47;5034764;28;20421;-64
2023/08/02 11:16:02;;;;;;;;;;;;;;;17.70;83.81;96521.59;5043160;28;19933;-67
2023/08/02 11:18:50;;;;;;;;;;;;;;;17.68;83.46;96513.72;5039638;28;19963;-64
2023/08/02 11:21:40;;;;;;;;;;;;;;;17.61;84.46;96521.97;5045496;28;19960;-65
2023/08/02 11:24:28;;;;;;;;;;;;;;;17.59;85.20;96515.31;5041215;28;19932;-65
2023/08/02 11:27:18;;;;;;;;;;;;;;;17.64;84.99;96510.22;5044023;28;19929;-66
2023/08/02 11:30:07;;;;;;;;;;;;;;;17.64;84.89;96492.94;5044028;28;19924;-65
2023/08/02 11:32:57;;;;;;;;;;;;;;;17.70;84.68;96507.84;5040856;28;19925;-64
2023/08/02 11:35:45;;;;;;;;;;;;;;;17.70;83.87;96502.34;5045495;28;19928;-67
2023/08/02 11:38:35;;;;;;;;;;;;;;;17.74;84.16;96497.69;5033073;28;20030;-66
2023/08/02 11:41:23;;;;;;;;;;;;;;;17.74;84.22;96487.47;5050025;28;20033;-63
2023/08/02 11:44:15;;;;;;;;;;;;;;;17.75;84.69;96491.78;5047045;28;19924;-64
2023/08/02 11:47:03;;;;;;;;;;;;;;;17.78;85.05;96480.00;5050307;28;19925;-64
2023/08/02 11:49:51;;;;;;;;;;;;;;;17.84;84.20;96472.16;5037737;28;19928;-63
2023/08/02 11:52:40;;;;;;;;;;;;;;;17.86;83.23;96471.78;5045845;28;19929;-64
2023/08/02 11:55:29;;;;;;;;;;;;;;;17.85;83.85;96470.22;5038028;28;19936;-64
2023/08/02 11:58:17;;;;;;;;;;;;;;;17.84;85.35;96479.59;5042271;28;19936;-64
2023/08/02 12:01:06;;;;;;;;;;;;;;;17.90;84.63;96445.88;5040745;28;19924;-64
2023/08/02 12:03:57;;;;;;;;;;;;;;;17.94;84.71;96454.09;5042356;28;19932;-64
2023/08/02 12:06:47;;;;;;;;;;;;;;;17.87;84.36;96484.34;5043150;28;19956;-66
2023/08/02 12:09:39;;;;;;;;;;;;;;;17.78;85.02;96460.78;5045522;28;20432;-63
2023/08/02 12:12:29;;;;;;;;;;;;;;;17.83;84.22;96445.09;5042143;28;19932;-68
2023/08/02 12:15:18;;;;;;;;;;;;;;;17.86;84.00;96461.56;5042752;28;19934;-64
2023/08/02 12:18:07;;;;;;;;;;;;;;;17.86;83.92;96455.28;5037219;28;20023;-67
2023/08/02 12:20:55;;;;;;;;;;;;;;;17.84;84.25;96447.44;5032191;28;19968;-64
2023/08/02 12:23:43;;;;;;;;;;;;;;;17.91;82.59;96449.41;5041401;28;19928;-65
2023/08/02 12:26:33;;;;;;;;;;;;;;;17.86;84.22;96439.59;5037111;28;21450;-63
2023/08/02 12:29:23;;;;;;;;;;;;;;;17.89;83.53;96440.75;5038394;28;19933;-65
2023/08/02 12:32:11;;;;;;;;;;;;;;;17.93;82.76;96439.56;5049159;28;19925;-64
2023/08/02 12:35:04;;;;;;;;;;;;;;;17.97;83.72;96428.59;5041399;28;19935;-64
2023/08/02 12:37:59;;;;;;;;;;;;;;;17.94;84.66;96419.16;5045241;28;20455;-65
2023/08/02 12:40:48;;;;;;;;;;;;;;;17.91;85.63;96430.94;5050486;28;20345;-63
2023/08/02 12:43:37;;;;;;;;;;;;;;;17.94;83.57;96421.13;5044088;28;19933;-64
2023/08/02 12:46:27;;;;;;;;;;;;;;;17.88;84.58;96422.72;5031054;28;19925;-63
2023/08/02 12:49:15;;;;;;;;;;;;;;;17.93;84.00;96411.31;5045984;28;19928;-65
2023/08/02 12:52:03;;;;;;;;;;;;;;;17.98;83.94;96413.66;5041004;28;19929;-64
2023/08/02 12:54:51;;;;;;;;;;;;;;;17.97;83.44;96412.09;5044813;28;19940;-68
2023/08/02 12:57:40;;;;;;;;;;;;;;;17.92;84.68;96399.53;5034367;28;19932;-63
2023/08/02 13:00:28;;;;;;;;;;;;;;;17.90;85.63;96403.88;5043437;28;20100;-65
2023/08/02 13:03:18;;;;;;;;;;;;;;;17.86;85.49;96405.84;5037254;28;19983;-66
2023/08/02 13:06:06;;;;;;;;;;;;;;;17.80;86.93;96387.00;5045199;28;19925;-65
2023/08/02 13:08:54;;;;;;;;;;;;;;;17.80;86.41;96373.28;5041411;28;19929;-63
2023/08/02 13:11:44;;;;;;;;;;;;;;;17.86;84.30;96390.16;5039394;28;20007;-65
2023/08/02 13:14:33;;;;;;;;;;;;;;;17.81;86.46;96398.78;5042851;28;20393;-65
2023/08/02 13:17:21;;;;;;;;;;;;;;;17.86;85.93;96389.38;5033651;28;19933;-64
2023/08/02 13:20:13;;;;;;;;;;;;;;;17.87;86.16;96382.69;5040238;28;19932;-66
2023/08/02 13:23:01;;;;;;;;;;;;;;;17.93;86.84;96383.84;5037073;28;20561;-64
2023/08/02 13:25:50;;;;;;;;;;;;;;;17.90;87.60;96379.94;5052382;28;19924;-64
2023/08/02 13:28:38;;;;;;;;;;;;;;;17.92;87.73;96374.03;5037956;28;19982;-64
2023/08/02 13:31:26;;;;;;;;;;;;;;;17.91;87.57;96383.47;5040489;28;19932;-64
2023/08/02 13:34:15;;;;;;;;;;;;;;;17.91;87.96;96381.50;5036139;28;19929;-66
2023/08/02 13:37:05;;;;;;;;;;;;;;;17.94;87.98;96379.91;5029971;28;19940;-64
2023/08/02 13:39:55;;;;;;;;;;;;;;;17.97;88.60;96373.63;5039690;28;19929;-64
2023/08/02 13:42:43;;;;;;;;;;;;;;;18.02;87.39;96375.97;5034498;28;19932;-63
2023/08/02 13:45:32;;;;;;;;;;;;;;;18.03;87.27;96377.53;5042827;28;19929;-63
2023/08/02 13:48:21;;;;;;;;;;;;;;;18.01;87.32;96374.41;5041885;28;19935;-66
2023/08/02 13:51:09;;;;;;;;;;;;;;;18.00;86.25;96372.81;5048146;28;19929;-66